
Distance (Route):
Temperature : -9.0°C
Humidity : 41.3%
Pressure : 0hPa| Receiver | Frames | First received | Last received |
|---|---|---|---|
| LZ4TU-5 | 103 | 2026-09-05 11:20:52 | 2026-09-05 13:00:14 |
| Receiver | Date | Latitude | Longitude | Direction | Speed | Altitude | Climb | Temperature | Humidity | Pressure | Voltage | Killtimer | Uptime | BKT | XDATA |
|---|---|---|---|---|---|---|---|---|---|---|---|---|---|---|---|
| LZ4TU-5 | 2026-09-05 13:00:14 | 44.23760 | 23.24763 | 102° | 37km/h | 5830m | -16.9m/s | -9.0°C | 41.3% | 0hPa | 0V | 00:00:00 | 00:00:00 | 00:00:00 | |
| LZ4TU-5 | 2026-09-05 13:00:09 | 44.23771 | 23.24698 | 108° | 38km/h | 5916m | -16.9m/s | -9.7°C | 40.7% | 0hPa | 0V | 00:00:00 | 00:00:00 | 00:00:00 | |
| LZ4TU-5 | 2026-09-05 12:57:16 | 44.24020 | 23.21899 | 101° | 73km/h | 8987m | -18.6m/s | -29.0°C | 10.8% | 0hPa | 0V | 00:00:00 | 00:00:00 | 00:00:00 | |
| LZ4TU-5 | 2026-09-05 12:57:12 | 44.24032 | 23.21799 | 100° | 71km/h | 9059m | -19.6m/s | -29.3°C | 10.7% | 0hPa | 0V | 00:00:00 | 00:00:00 | 00:00:00 | |
| LZ4TU-5 | 2026-09-05 12:53:41 | 44.24285 | 23.16343 | 97° | 77km/h | 13523m | -23.1m/s | -62.7°C | 10.4% | 0hPa | 0V | 00:00:00 | 00:00:00 | 00:00:00 | |
| LZ4TU-5 | 2026-09-05 12:53:37 | 44.24298 | 23.16209 | 100° | 77km/h | 13637m | -23.5m/s | -62.1°C | 8.7% | 0hPa | 0V | 00:00:00 | 00:00:00 | 00:00:00 | |
| LZ4TU-5 | 2026-09-05 12:50:44 | 44.24240 | 23.12960 | 54° | 31km/h | 18311m | -32.1m/s | -55.6°C | 0.0% | 0hPa | 0V | 00:00:00 | 00:00:00 | 00:00:00 | |
| LZ4TU-5 | 2026-09-05 12:48:08 | 44.23936 | 23.12006 | 58° | 16km/h | 24706m | -57.4m/s | -49.7°C | 0.0% | 0hPa | 0V | 00:00:00 | 00:00:00 | 00:00:00 | |
| LZ4TU-5 | 2026-09-05 12:48:03 | 44.23925 | 23.11986 | 42° | 9km/h | 24997m | -57.7m/s | -49.4°C | 0% | 0hPa | 0V | 00:00:00 | 00:00:00 | 00:00:00 | |
| LZ4TU-5 | 2026-09-05 12:44:40 | 44.23724 | 23.11955 | 39° | 7km/h | 31183m | 7.2m/s | -43.9°C | 2.1% | 0hPa | 0V | 00:00:00 | 00:00:00 | 00:00:00 | |
| LZ4TU-5 | 2026-09-05 12:44:35 | 44.23727 | 23.11960 | 237° | 13km/h | 31148m | 7.5m/s | -43.8°C | 2.1% | 0hPa | 0V | 00:00:00 | 00:00:00 | 00:00:00 | |
| LZ4TU-5 | 2026-09-05 12:44:30 | 44.23739 | 23.11975 | 179° | 5km/h | 31110m | 7.7m/s | -44.1°C | 2.2% | 0hPa | 0V | 00:00:00 | 00:00:00 | 00:00:00 | |
| LZ4TU-5 | 2026-09-05 12:40:58 | 44.23784 | 23.11558 | 309° | 9km/h | 29590m | 7.1m/s | -42.2°C | 1.5% | 0hPa | 0V | 00:00:00 | 00:00:00 | 00:00:00 | |
| LZ4TU-5 | 2026-09-05 12:40:54 | 44.23780 | 23.11551 | 102° | 18km/h | 29563m | 7.1m/s | -42.3°C | 1.5% | 0hPa | 0V | 00:00:00 | 00:00:00 | 00:00:00 | |
| LZ4TU-5 | 2026-09-05 12:40:50 | 44.23783 | 23.11534 | 270° | 9km/h | 29530m | 7.3m/s | -42.5°C | 1.5% | 0hPa | 0V | 00:00:00 | 00:00:00 | 00:00:00 | |
| LZ4TU-5 | 2026-09-05 12:38:27 | 44.23732 | 23.11132 | 168° | 7km/h | 28525m | 7.8m/s | -46.4°C | 1.4% | 0hPa | 0V | 00:00:00 | 00:00:00 | 00:00:00 | |
| LZ4TU-5 | 2026-09-05 12:38:22 | 44.23736 | 23.11130 | 0° | 0km/h | 28487m | 6.6m/s | -46.3°C | 1.4% | 0hPa | 0V | 00:00:00 | 00:00:00 | 00:00:00 | |
| LZ4TU-5 | 2026-09-05 12:35:48 | 44.23686 | 23.10874 | 94° | 9km/h | 27473m | 5.8m/s | -46.9°C | 1.5% | 0hPa | 0V | 00:00:00 | 00:00:00 | 00:00:00 | |
| LZ4TU-5 | 2026-09-05 12:35:43 | 44.23696 | 23.10850 | 82° | 15km/h | 27440m | 5.9m/s | -47.1°C | 1.5% | 0hPa | 0V | 00:00:00 | 00:00:00 | 00:00:00 | |
| LZ4TU-5 | 2026-09-05 12:33:28 | 44.23504 | 23.10412 | 72° | 16km/h | 26496m | 6.2m/s | -45.0°C | 1.2% | 0hPa | 0V | 00:00:00 | 00:00:00 | 00:00:00 | |
| LZ4TU-5 | 2026-09-05 12:33:23 | 44.23495 | 23.10397 | 358° | 4km/h | 26459m | 6.3m/s | -44.9°C | 1.1% | 0hPa | 0V | 00:00:00 | 00:00:00 | 00:00:00 | |
| LZ4TU-5 | 2026-09-05 12:30:22 | 44.23400 | 23.09881 | 295° | 5km/h | 25297m | 6.2m/s | -49.5°C | 0.8% | 0hPa | 0V | 00:00:00 | 00:00:00 | 00:00:00 | |
| LZ4TU-5 | 2026-09-05 12:30:17 | 44.23386 | 23.09886 | 230° | 24km/h | 25266m | 7.0m/s | -49.8°C | 0.8% | 0hPa | 0V | 00:00:00 | 00:00:00 | 00:00:00 | |
| LZ4TU-5 | 2026-09-05 12:27:57 | 44.23062 | 23.09523 | 22° | 20km/h | 24348m | 7.0m/s | -51.4°C | 0.7% | 0hPa | 0V | 00:00:00 | 00:00:00 | 00:00:00 | |
| LZ4TU-5 | 2026-09-05 12:27:52 | 44.23029 | 23.09503 | 35° | 29km/h | 24319m | 5.9m/s | -51.5°C | 0.7% | 0hPa | 0V | 00:00:00 | 00:00:00 | 00:00:00 | |
| LZ4TU-5 | 2026-09-05 12:26:01 | 44.22682 | 23.09521 | 65° | 15km/h | 23641m | 3.9m/s | -52.7°C | 0.2% | 0hPa | 0V | 00:00:00 | 00:00:00 | 00:00:00 | |
| LZ4TU-5 | 2026-09-05 12:25:57 | 44.22672 | 23.09503 | 44° | 16km/h | 23610m | 8.4m/s | -52.8°C | 0.1% | 0hPa | 0V | 00:00:00 | 00:00:00 | 00:00:00 | |
| LZ4TU-5 | 2026-09-05 12:24:05 | 44.22498 | 23.09267 | 56° | 24km/h | 22946m | 5.6m/s | -54.9°C | 0.7% | 0hPa | 0V | 00:00:00 | 00:00:00 | 00:00:00 | |
| LZ4TU-5 | 2026-09-05 12:24:00 | 44.22486 | 23.09226 | 89° | 29km/h | 22915m | 7.6m/s | -54.8°C | 0.7% | 0hPa | 0V | 00:00:00 | 00:00:00 | 00:00:00 | |
| LZ4TU-5 | 2026-09-05 12:21:47 | 44.22281 | 23.08660 | 161° | 29km/h | 22101m | 6.1m/s | -55.0°C | 0.6% | 0hPa | 0V | 00:00:00 | 00:00:00 | 00:00:00 | |
| LZ4TU-5 | 2026-09-05 12:21:42 | 44.22306 | 23.08630 | 112° | 31km/h | 22072m | 6.3m/s | -55.0°C | 0.6% | 0hPa | 0V | 00:00:00 | 00:00:00 | 00:00:00 | |
| LZ4TU-5 | 2026-09-05 12:19:35 | 44.22361 | 23.07748 | 104° | 5km/h | 21274m | 5.4m/s | -54.6°C | 0.5% | 0hPa | 0V | 00:00:00 | 00:00:00 | 00:00:00 | |
| LZ4TU-5 | 2026-09-05 12:19:29 | 44.22365 | 23.07723 | 65° | 11km/h | 21244m | 6.5m/s | -54.6°C | 0.5% | 0hPa | 0V | 00:00:00 | 00:00:00 | 00:00:00 | |
| LZ4TU-5 | 2026-09-05 12:17:16 | 44.22324 | 23.06839 | 96° | 35km/h | 20463m | 5.5m/s | -55.4°C | 0.4% | 0hPa | 0V | 00:00:00 | 00:00:00 | 00:00:00 | |
| LZ4TU-5 | 2026-09-05 12:17:12 | 44.22322 | 23.06792 | 80° | 29km/h | 20439m | 7.2m/s | -55.3°C | 0.4% | 0hPa | 0V | 00:00:00 | 00:00:00 | 00:00:00 | |
| LZ4TU-5 | 2026-09-05 12:15:05 | 44.21732 | 23.05653 | 77° | 44km/h | 19745m | 4.9m/s | -56.9°C | 0.3% | 0hPa | 0V | 00:00:00 | 00:00:00 | 00:00:00 | |
| LZ4TU-5 | 2026-09-05 12:15:00 | 44.21719 | 23.05606 | 60° | 33km/h | 19721m | 6.8m/s | -57.1°C | 0.4% | 0hPa | 0V | 00:00:00 | 00:00:00 | 00:00:00 | |
| LZ4TU-5 | 2026-09-05 12:12:02 | 44.20870 | 23.04497 | 103° | 20km/h | 18747m | 5.8m/s | -55.8°C | 0.7% | 0hPa | 0V | 00:00:00 | 00:00:00 | 00:00:00 | |
| LZ4TU-5 | 2026-09-05 12:11:58 | 44.20873 | 23.04468 | 94° | 24km/h | 18721m | 7.1m/s | -55.7°C | 0.7% | 0hPa | 0V | 00:00:00 | 00:00:00 | 00:00:00 | |
| LZ4TU-5 | 2026-09-05 12:10:08 | 44.20704 | 23.03447 | 74° | 38km/h | 18078m | 5.9m/s | -57.3°C | 1.2% | 0hPa | 0V | 00:00:00 | 00:00:00 | 00:00:00 | |
| LZ4TU-5 | 2026-09-05 12:10:03 | 44.20692 | 23.03395 | 75° | 40km/h | 18054m | 6.2m/s | -57.4°C | 1.2% | 0hPa | 0V | 00:00:00 | 00:00:00 | 00:00:00 | |
| LZ4TU-5 | 2026-09-05 12:07:48 | 44.20360 | 23.01794 | 86° | 58km/h | 17325m | 5.1m/s | -59.5°C | 1.8% | 0hPa | 0V | 00:00:00 | 00:00:00 | 00:00:00 | |
| LZ4TU-5 | 2026-09-05 12:07:43 | 44.20351 | 23.01699 | 73° | 49km/h | 17296m | 7.7m/s | -59.5°C | 1.8% | 0hPa | 0V | 00:00:00 | 00:00:00 | 00:00:00 | |
| LZ4TU-5 | 2026-09-05 12:05:28 | 44.20177 | 22.99580 | 99° | 49km/h | 16565m | 5.3m/s | -60.5°C | 2.6% | 0hPa | 0V | 00:00:00 | 00:00:00 | 00:00:00 | |
| LZ4TU-5 | 2026-09-05 12:05:23 | 44.20180 | 22.99489 | 89° | 55km/h | 16537m | 5.1m/s | -60.5°C | 2.7% | 0hPa | 0V | 00:00:00 | 00:00:00 | 00:00:00 | |
| LZ4TU-5 | 2026-09-05 12:03:17 | 44.20244 | 22.97386 | 83° | 49km/h | 15817m | 4.9m/s | -59.6°C | 4.8% | 0hPa | 0V | 00:00:00 | 00:00:00 | 00:00:00 | |
| LZ4TU-5 | 2026-09-05 12:03:12 | 44.20240 | 22.97289 | 92° | 46km/h | 15792m | 5.4m/s | -60.0°C | 0% | 0hPa | 0V | 00:00:00 | 00:00:00 | 00:00:00 | |
| LZ4TU-5 | 2026-09-05 12:00:54 | 44.20064 | 22.95036 | 104° | 47km/h | 15064m | 6.5m/s | -61.6°C | 10.0% | 0hPa | 0V | 00:00:00 | 00:00:00 | 00:00:00 | |
| LZ4TU-5 | 2026-09-05 12:00:50 | 44.20087 | 22.94949 | 105° | 49km/h | 15033m | 6.5m/s | -61.8°C | 0% | 0hPa | 0V | 00:00:00 | 00:00:00 | 00:00:00 | |
| LZ4TU-5 | 2026-09-05 11:58:37 | 44.20610 | 22.92520 | 88° | 77km/h | 14232m | 5.8m/s | -62.3°C | 18.6% | 0hPa | 0V | 00:00:00 | 00:00:00 | 00:00:00 | |
| LZ4TU-5 | 2026-09-05 11:58:33 | 44.20620 | 22.92387 | 108° | 91km/h | 14206m | 7.2m/s | -62.1°C | 19.2% | 0hPa | 0V | 00:00:00 | 00:00:00 | 00:00:00 | |
| LZ4TU-5 | 2026-09-05 11:58:24 | 44.20674 | 22.92154 | 97° | 80km/h | 14149m | 6.2m/s | -61.9°C | 20.2% | 0hPa | 0V | 00:00:00 | 00:00:00 | 00:00:00 | |
| LZ4TU-5 | 2026-09-05 11:58:16 | 44.20693 | 22.91939 | 93° | 75km/h | 14106m | 7.0m/s | -62.1°C | 20.4% | 0hPa | 0V | 00:00:00 | 00:00:00 | 00:00:00 | |
| LZ4TU-5 | 2026-09-05 11:58:11 | 44.20698 | 22.91803 | 97° | 73km/h | 14081m | 4.6m/s | -62.5°C | 21.0% | 0hPa | 0V | 00:00:00 | 00:00:00 | 00:00:00 | |
| LZ4TU-5 | 2026-09-05 11:58:05 | 44.20704 | 22.91639 | 88° | 77km/h | 14052m | 5.5m/s | -63.6°C | 21.8% | 0hPa | 0V | 00:00:00 | 00:00:00 | 00:00:00 | |
| LZ4TU-5 | 2026-09-05 11:57:58 | 44.20693 | 22.91464 | 86° | 69km/h | 14016m | 5.4m/s | -64.0°C | 22.3% | 0hPa | 0V | 00:00:00 | 00:00:00 | 00:00:00 | |
| LZ4TU-5 | 2026-09-05 11:57:33 | 44.20651 | 22.90837 | 86° | 69km/h | 13895m | 4.1m/s | -63.6°C | 24.2% | 0hPa | 0V | 00:00:00 | 00:00:00 | 00:00:00 | |
| LZ4TU-5 | 2026-09-05 11:54:22 | 44.20524 | 22.86311 | 93° | 64km/h | 12777m | 7.0m/s | -59.0°C | 22.9% | 0hPa | 0V | 00:00:00 | 00:00:00 | 00:00:00 | |
| LZ4TU-5 | 2026-09-05 11:54:17 | 44.20521 | 22.86202 | 89° | 62km/h | 12749m | 6.0m/s | -58.9°C | 22.8% | 0hPa | 0V | 00:00:00 | 00:00:00 | 00:00:00 | |
| LZ4TU-5 | 2026-09-05 11:54:12 | 44.20527 | 22.86080 | 98° | 77km/h | 12719m | 5.8m/s | -58.8°C | 22.6% | 0hPa | 0V | 00:00:00 | 00:00:00 | 00:00:00 | |
| LZ4TU-5 | 2026-09-05 11:52:18 | 44.20452 | 22.83411 | 93° | 69km/h | 12083m | 3.4m/s | -53.5°C | 20.9% | 0hPa | 0V | 00:00:00 | 00:00:00 | 00:00:00 | |
| LZ4TU-5 | 2026-09-05 11:52:13 | 44.20456 | 22.83297 | 84° | 62km/h | 12058m | 5.1m/s | -53.4°C | 0% | 0hPa | 0V | 00:00:00 | 00:00:00 | 00:00:00 | |
| LZ4TU-5 | 2026-09-05 11:49:33 | 44.20364 | 22.79379 | 86° | 73km/h | 11183m | 4.0m/s | -47.7°C | 19.7% | 0hPa | 0V | 00:00:00 | 00:00:00 | 00:00:00 | |
| LZ4TU-5 | 2026-09-05 11:49:29 | 44.20375 | 22.79286 | 103° | 64km/h | 11161m | 4.9m/s | -47.3°C | 19.2% | 0hPa | 0V | 00:00:00 | 00:00:00 | 00:00:00 | |
| LZ4TU-5 | 2026-09-05 11:47:47 | 44.20442 | 22.76754 | 95° | 77km/h | 10574m | 6.4m/s | -42.8°C | 17.1% | 0hPa | 0V | 00:00:00 | 00:00:00 | 00:00:00 | |
| LZ4TU-5 | 2026-09-05 11:47:42 | 44.20447 | 22.76619 | 98° | 73km/h | 10550m | 6.0m/s | -42.5°C | 17.0% | 0hPa | 0V | 00:00:00 | 00:00:00 | 00:00:00 | |
| LZ4TU-5 | 2026-09-05 11:45:35 | 44.20719 | 22.73560 | 92° | 60km/h | 9881m | 5.3m/s | -37.0°C | 14.3% | 0hPa | 0V | 00:00:00 | 00:00:00 | 00:00:00 | |
| LZ4TU-5 | 2026-09-05 11:45:30 | 44.20732 | 22.73453 | 106° | 82km/h | 9857m | 4.6m/s | -36.8°C | 14.1% | 0hPa | 0V | 00:00:00 | 00:00:00 | 00:00:00 | |
| LZ4TU-5 | 2026-09-05 11:43:48 | 44.20879 | 22.71089 | 102° | 68km/h | 9288m | 5.4m/s | -32.3°C | 10.8% | 0hPa | 0V | 00:00:00 | 00:00:00 | 00:00:00 | |
| LZ4TU-5 | 2026-09-05 11:43:43 | 44.20885 | 22.70983 | 93° | 66km/h | 9260m | 5.7m/s | -32.2°C | 0% | 0hPa | 0V | 00:00:00 | 00:00:00 | 00:00:00 | |
| LZ4TU-5 | 2026-09-05 11:41:57 | 44.21042 | 22.68695 | 100° | 71km/h | 8641m | 5.6m/s | -28.2°C | 12.2% | 0hPa | 0V | 00:00:00 | 00:00:00 | 00:00:00 | |
| LZ4TU-5 | 2026-09-05 11:41:53 | 44.21046 | 22.68611 | 97° | 51km/h | 8620m | 5.8m/s | -28.2°C | 12.3% | 0hPa | 0V | 00:00:00 | 00:00:00 | 00:00:00 | |
| LZ4TU-5 | 2026-09-05 11:40:15 | 44.21410 | 22.66845 | 117° | 60km/h | 8043m | 7.3m/s | -24.4°C | 14.7% | 0hPa | 0V | 00:00:00 | 00:00:00 | 00:00:00 | |
| LZ4TU-5 | 2026-09-05 11:40:10 | 44.21430 | 22.66775 | 106° | 46km/h | 8005m | 7.2m/s | -24.1°C | 14.5% | 0hPa | 0V | 00:00:00 | 00:00:00 | 00:00:00 | |
| LZ4TU-5 | 2026-09-05 11:38:34 | 44.21650 | 22.65385 | 95° | 42km/h | 7496m | 5.5m/s | -20.4°C | 18.4% | 0hPa | 0V | 00:00:00 | 00:00:00 | 00:00:00 | |
| LZ4TU-5 | 2026-09-05 11:38:29 | 44.21656 | 22.65339 | 152° | 35km/h | 7464m | 5.9m/s | -20.2°C | 18.3% | 0hPa | 0V | 00:00:00 | 00:00:00 | 00:00:00 | |
| LZ4TU-5 | 2026-09-05 11:36:57 | 44.21962 | 22.64222 | 142° | 18km/h | 6983m | 5.3m/s | -16.0°C | 18.8% | 0hPa | 0V | 00:00:00 | 00:00:00 | 00:00:00 | |
| LZ4TU-5 | 2026-09-05 11:36:53 | 44.21975 | 22.64177 | 102° | 49km/h | 6961m | 4.3m/s | -15.8°C | 18.5% | 0hPa | 0V | 00:00:00 | 00:00:00 | 00:00:00 | |
| LZ4TU-5 | 2026-09-05 11:35:22 | 44.22228 | 22.63124 | 90° | 49km/h | 6475m | 3.6m/s | -13.5°C | 22.8% | 0hPa | 0V | 00:00:00 | 00:00:00 | 00:00:00 | |
| LZ4TU-5 | 2026-09-05 11:35:17 | 44.22249 | 22.63054 | 120° | 33km/h | 6443m | 7.2m/s | -13.3°C | 0% | 0hPa | 0V | 00:00:00 | 00:00:00 | 00:00:00 | |
| LZ4TU-5 | 2026-09-05 11:34:03 | 44.22527 | 22.62253 | 93° | 18km/h | 6063m | 6.2m/s | -11.6°C | 32.2% | 0hPa | 0V | 00:00:00 | 00:00:00 | 00:00:00 | |
| LZ4TU-5 | 2026-09-05 11:33:58 | 44.22515 | 22.62189 | 84° | 55km/h | 6038m | 5.6m/s | -11.4°C | 32.4% | 0hPa | 0V | 00:00:00 | 00:00:00 | 00:00:00 | |
| LZ4TU-5 | 2026-09-05 11:32:46 | 44.22674 | 22.61392 | 118° | 22km/h | 5647m | 4.3m/s | -8.5°C | 35.4% | 0hPa | 0V | 00:00:00 | 00:00:00 | 00:00:00 | |
| LZ4TU-5 | 2026-09-05 11:32:41 | 44.22682 | 22.61330 | 102° | 27km/h | 5621m | 6.9m/s | -8.3°C | 36.6% | 0hPa | 0V | 00:00:00 | 00:00:00 | 00:00:00 | |
| LZ4TU-5 | 2026-09-05 11:31:31 | 44.22781 | 22.60651 | 119° | 47km/h | 5220m | 5.0m/s | -5.6°C | 37.2% | 0hPa | 0V | 00:00:00 | 00:00:00 | 00:00:00 | |
| LZ4TU-5 | 2026-09-05 11:31:26 | 44.22798 | 22.60590 | 97° | 44km/h | 5186m | 6.1m/s | -5.4°C | 39.0% | 0hPa | 0V | 00:00:00 | 00:00:00 | 00:00:00 | |
| LZ4TU-5 | 2026-09-05 11:30:17 | 44.22945 | 22.59756 | 112° | 37km/h | 4800m | 5.8m/s | -2.6°C | 36.5% | 0hPa | 0V | 00:00:00 | 00:00:00 | 00:00:00 | |
| LZ4TU-5 | 2026-09-05 11:30:10 | 44.22943 | 22.59697 | 79° | 33km/h | 4770m | 4.9m/s | -2.5°C | 44.2% | 0hPa | 0V | 00:00:00 | 00:00:00 | 00:00:00 | |
| LZ4TU-5 | 2026-09-05 11:29:00 | 44.22939 | 22.59036 | 58° | 22km/h | 4401m | 6.6m/s | 0.5°C | 45.8% | 0hPa | 0V | 00:00:00 | 00:00:00 | 00:00:00 | |
| LZ4TU-5 | 2026-09-05 11:28:55 | 44.22929 | 22.58987 | 96° | 22km/h | 4377m | 7.2m/s | 0.8°C | 0% | 0hPa | 0V | 00:00:00 | 00:00:00 | 00:00:00 | |
| LZ4TU-5 | 2026-09-05 11:27:45 | 44.22953 | 22.58230 | 67° | 26km/h | 3988m | 5.9m/s | 4.5°C | 38.8% | 0hPa | 0V | 00:00:00 | 00:00:00 | 00:00:00 | |
| LZ4TU-5 | 2026-09-05 11:27:40 | 44.22939 | 22.58205 | 114° | 24km/h | 3958m | 7.1m/s | 4.8°C | 32.1% | 0hPa | 0V | 00:00:00 | 00:00:00 | 00:00:00 | |
| LZ4TU-5 | 2026-09-05 11:26:30 | 44.23001 | 22.57383 | 88° | 15km/h | 3586m | 4.2m/s | 7.2°C | 43.0% | 0hPa | 0V | 00:00:00 | 00:00:00 | 00:00:00 | |
| LZ4TU-5 | 2026-09-05 11:26:25 | 44.23011 | 22.57318 | 119° | 53km/h | 3560m | 4.6m/s | 7.4°C | 0% | 0hPa | 0V | 00:00:00 | 00:00:00 | 00:00:00 | |
| LZ4TU-5 | 2026-09-05 11:25:23 | 44.23164 | 22.56507 | 81° | 31km/h | 3245m | 4.9m/s | 9.5°C | 45.1% | 0hPa | 0V | 00:00:00 | 00:00:00 | 00:00:00 | |
| LZ4TU-5 | 2026-09-05 11:25:19 | 44.23173 | 22.56453 | 121° | 46km/h | 3224m | 4.8m/s | 9.7°C | 45.1% | 0hPa | 0V | 00:00:00 | 00:00:00 | 00:00:00 | |
| LZ4TU-5 | 2026-09-05 11:24:15 | 44.23425 | 22.55706 | 134° | 38km/h | 2901m | 4.6m/s | 11.8°C | 29.9% | 0hPa | 0V | 00:00:00 | 00:00:00 | 00:00:00 | |
| LZ4TU-5 | 2026-09-05 11:24:11 | 44.23440 | 22.55656 | 96° | 27km/h | 2882m | 4.8m/s | 11.9°C | 29.4% | 0hPa | 0V | 00:00:00 | 00:00:00 | 00:00:00 | |
| LZ4TU-5 | 2026-09-05 11:23:07 | 44.23666 | 22.55209 | 153° | 33km/h | 2538m | 5.5m/s | 14.2°C | 30.8% | 0hPa | 0V | 00:00:00 | 00:00:00 | 00:00:00 | |
| LZ4TU-5 | 2026-09-05 11:23:02 | 44.23684 | 22.55174 | 70° | 27km/h | 2509m | 6.9m/s | 14.5°C | 30.4% | 0hPa | 0V | 00:00:00 | 00:00:00 | 00:00:00 | |
| LZ4TU-5 | 2026-09-05 11:21:59 | 44.23728 | 22.54927 | 184° | 13km/h | 2189m | 5.4m/s | 17.2°C | 28.9% | 0hPa | 0V | 00:00:00 | 00:00:00 | 00:00:00 | |
| LZ4TU-5 | 2026-09-05 11:21:55 | 44.23722 | 22.54918 | 26° | 16km/h | 2168m | 5.7m/s | 17.4°C | 28.7% | 0hPa | 0V | 00:00:00 | 00:00:00 | 00:00:00 | |
| LZ4TU-5 | 2026-09-05 11:20:52 | 44.23780 | 22.54477 | 122° | 35km/h | 1857m | 5.3m/s | 17.5°C | 39.6% | 0hPa | 0V | 00:00:00 | 00:00:00 | 00:00:00 |